Time;durP1;ratioP1;P1;durP2;ratioP2;P2;SDS_P1;SDS_P2;PMS_P1;PMS_P2;Temp;Humidity;BMP_temperature;BMP_pressure;BME280_temperature;BME280_humidity;BME280_pressure;Samples;Min_cycle;Max_cycle;Signal;HPM_P1;HPM_P2
2023/04/02 00:00:34;;;;;;;13.80;8.80;;;;;;;11.84;68.65;99365.23;105194;1258;59663;-48
2023/04/02 00:03:04;;;;;;;12.50;9.40;;;;;;;11.86;68.63;99366.39;105393;1258;64597;-48
2023/04/02 00:05:50;;;;;;;11.80;9.00;;;;;;;11.87;68.62;99364.89;105251;1258;62588;-50
2023/04/02 00:08:27;;;;;;;19.10;9.90;;;;;;;11.86;68.84;99361.98;105324;1258;64840;-49
2023/04/02 00:10:57;;;;;;;15.20;9.70;;;;;;;11.83;68.99;99366.70;105344;1258;59623;-50
2023/04/02 00:13:45;;;;;;;13.60;10.30;;;;;;;11.78;68.99;99361.08;105213;1261;59958;-49
2023/04/02 00:16:16;;;;;;;15.40;9.50;;;;;;;11.72;69.15;99357.81;105253;1263;65365;-48
2023/04/02 00:18:47;;;;;;;14.80;9.90;;;;;;;11.70;69.05;99361.82;105261;1258;71181;-49
2023/04/02 00:21:27;;;;;;;14.70;9.80;;;;;;;11.71;69.15;99359.48;105070;1258;65286;-48
2023/04/02 00:23:55;;;;;;;12.40;9.40;;;;;;;11.72;69.17;99360.47;105130;1258;59701;-49
2023/04/02 00:26:33;;;;;;;13.70;9.00;;;;;;;11.71;69.18;99360.87;105557;1258;60384;-48
2023/04/02 00:29:02;;;;;;;12.70;9.40;;;;;;;11.71;69.23;99361.45;105166;1258;65476;-48
2023/04/02 00:31:36;;;;;;;13.40;9.30;;;;;;;11.70;69.33;99364.48;105093;1263;61581;-48
2023/04/02 00:34:07;;;;;;;13.90;10.20;;;;;;;11.68;69.34;99362.79;105131;1263;64853;-49
2023/04/02 00:36:35;;;;;;;16.00;9.50;;;;;;;11.68;69.20;99362.04;105248;1258;59982;-48
2023/04/02 00:39:09;;;;;;;13.50;9.80;;;;;;;11.71;69.02;99358.98;105162;1261;59764;-49
2023/04/02 00:41:45;;;;;;;14.70;10.10;;;;;;;11.76;68.87;99363.40;105169;1260;65182;-49
2023/04/02 00:44:20;;;;;;;12.60;9.30;;;;;;;11.78;69.09;99366.22;105094;1261;62397;-51
2023/04/02 00:46:49;;;;;;;15.40;10.00;;;;;;;11.75;69.39;99366.99;105222;1261;64047;-49
2023/04/02 00:49:31;;;;;;;14.30;10.10;;;;;;;11.71;69.32;99365.08;104988;1259;59654;-48
2023/04/02 00:52:10;;;;;;;13.60;9.40;;;;;;;11.67;69.24;99366.35;105271;1261;63573;-49
2023/04/02 00:54:50;;;;;;;12.70;8.80;;;;;;;11.65;69.47;99371.54;105143;1263;73930;-48
2023/04/02 00:57:24;;;;;;;13.30;8.70;;;;;;;11.68;69.36;99373.98;105157;1264;70987;-49
2023/04/02 01:00:04;;;;;;;13.80;9.00;;;;;;;11.73;69.30;99374.06;105143;1263;64928;-49
2023/04/02 01:02:37;;;;;;;16.10;8.80;;;;;;;11.79;69.20;99372.77;105184;1258;62051;-49
2023/04/02 01:05:16;;;;;;;14.20;9.60;;;;;;;11.81;69.15;99375.16;105270;1260;59756;-49
2023/04/02 01:08:05;;;;;;;12.70;9.30;;;;;;;11.78;69.16;99373.01;105068;1261;65390;-50
2023/04/02 01:11:08;;;;;;;13.00;9.60;;;;;;;11.76;69.10;99372.03;105111;1261;62841;-50
2023/04/02 01:13:56;;;;;;;16.70;10.50;;;;;;;11.73;69.25;99371.79;105290;1263;66855;-50
2023/04/02 01:16:35;;;;;;;15.00;9.80;;;;;;;11.70;69.22;99372.56;105396;1261;59736;-52
2023/04/02 01:19:27;;;;;;;12.70;9.10;;;;;;;11.70;68.92;99376.94;105187;1263;60823;-51
2023/04/02 01:22:05;;;;;;;13.00;9.00;;;;;;;11.74;68.88;99374.13;105247;1263;65055;-50
2023/04/02 01:24:37;;;;;;;12.50;9.50;;;;;;;11.77;68.92;99371.21;104985;1266;61655;-50
2023/04/02 01:27:31;;;;;;;14.20;9.50;;;;;;;11.77;69.13;99371.52;104935;1264;64804;-51
2023/04/02 01:30:02;;;;;;;12.20;9.50;;;;;;;11.75;69.09;99369.88;105560;1261;59748;-51
2023/04/02 01:32:32;;;;;;;13.90;10.20;;;;;;;11.71;69.12;99370.25;104694;1266;59635;-51
2023/04/02 01:35:00;;;;;;;13.30;9.90;;;;;;;11.67;69.26;99373.26;105151;1263;65394;-51
2023/04/02 01:37:48;;;;;;;12.40;9.00;;;;;;;11.64;69.18;99374.63;105147;1260;62415;-50
2023/04/02 01:40:19;;;;;;;12.50;9.00;;;;;;;11.66;69.19;99381.99;105280;1262;64891;-50
2023/04/02 01:43:03;;;;;;;14.10;8.50;;;;;;;11.68;69.17;99386.29;105194;1259;59696;-48
2023/04/02 01:45:33;;;;;;;12.50;8.40;;;;;;;11.70;69.11;99385.45;105270;1261;59663;-50
2023/04/02 01:48:32;;;;;;;16.00;9.40;;;;;;;11.69;69.17;99385.29;104932;1265;65467;-48
2023/04/02 01:51:05;;;;;;;13.00;9.30;;;;;;;11.69;69.38;99384.77;104864;1262;62829;-49
2023/04/02 01:53:34;;;;;;;11.80;9.60;;;;;;;11.70;69.47;99387.52;105506;1260;64768;-49
2023/04/02 01:56:03;;;;;;;13.50;9.30;;;;;;;11.69;69.33;99391.00;105359;1255;59718;-49
2023/04/02 01:58:33;;;;;;;17.40;9.20;;;;;;;11.71;68.98;99388.98;105258;1263;59663;-49
2023/04/02 02:01:11;;;;;;;12.00;8.20;;;;;;;11.76;68.98;99388.23;105383;1260;65206;-49
2023/04/02 02:03:41;;;;;;;12.70;8.90;;;;;;;11.74;69.05;99387.48;105413;1255;62780;-49
2023/04/02 02:06:14;;;;;;;12.30;9.20;;;;;;;11.73;69.16;99390.77;105406;1255;64062;-48
2023/04/02 02:09:03;;;;;;;14.10;9.90;;;;;;;11.71;69.06;99393.58;105334;1254;59637;-49
2023/04/02 02:11:32;;;;;;;13.50;8.60;;;;;;;11.67;69.13;99390.62;105384;1255;59754;-49
2023/04/02 02:14:21;;;;;;;13.30;9.80;;;;;;;11.63;69.30;99384.92;105374;1254;64052;-48
2023/04/02 02:16:55;;;;;;;14.50;9.30;;;;;;;11.59;69.42;99386.67;105988;1260;70704;-48
2023/04/02 02:19:42;;;;;;;13.20;8.80;;;;;;;11.61;69.33;99386.73;105374;1260;64877;-48
2023/04/02 02:22:31;;;;;;;13.00;8.70;;;;;;;11.62;69.30;99386.11;105442;1254;59678;-48
2023/04/02 02:25:01;;;;;;;14.90;9.40;;;;;;;11.64;69.47;99382.35;105360;1254;59802;-49
2023/04/02 02:27:50;;;;;;;13.20;9.30;;;;;;;11.64;69.56;99382.34;105265;1258;65459;-49
2023/04/02 02:30:37;;;;;;;13.60;9.40;;;;;;;11.64;69.57;99384.84;105283;1257;62619;-49
2023/04/02 02:33:25;;;;;;;13.40;9.20;;;;;;;11.62;69.54;99385.02;105166;1255;65051;-50
2023/04/02 02:35:59;;;;;;;14.10;9.10;;;;;;;11.58;69.68;99385.05;105380;1258;59674;-50
2023/04/02 02:38:47;;;;;;;13.70;9.00;;;;;;;11.53;69.97;99385.73;105374;1255;59742;-51
2023/04/02 02:41:47;;;;;;;11.80;8.10;;;;;;;11.55;70.10;99387.07;105382;1259;65062;-50
2023/04/02 02:44:35;;;;;;;14.50;8.20;;;;;;;11.58;70.10;99389.95;105407;1260;62446;-50
2023/04/02 02:47:15;;;;;;;13.70;10.10;;;;;;;11.57;70.11;99391.97;105470;1257;64892;-50
2023/04/02 02:49:46;;;;;;;12.90;8.80;;;;;;;11.55;70.25;99390.41;105331;1257;59616;-49
2023/04/02 02:52:26;;;;;;;13.00;9.50;;;;;;;11.50;70.24;99392.52;105314;1254;59730;-48
2023/04/02 02:55:04;;;;;;;19.90;9.80;;;;;;;11.46;70.31;99393.44;105404;1260;65040;-48
2023/04/02 02:58:05;;;;;;;12.90;8.80;;;;;;;11.47;70.21;99397.36;105305;1260;62838;-48
2023/04/02 03:00:39;;;;;;;12.60;8.60;;;;;;;11.52;70.24;99391.27;105463;1255;64908;-48
2023/04/02 03:03:11;;;;;;;12.10;9.00;;;;;;;11.55;70.22;99389.25;106568;1260;59496;-48
2023/04/02 03:05:40;;;;;;;11.90;8.80;;;;;;;11.57;70.46;99392.92;105294;1254;59760;-48
2023/04/02 03:08:20;;;;;;;13.70;9.60;;;;;;;11.57;70.51;99395.73;105324;1254;64217;-48
2023/04/02 03:11:01;;;;;;;11.40;8.80;;;;;;;11.55;70.37;99395.38;105409;1255;62595;-48
2023/04/02 03:13:34;;;;;;;12.50;9.60;;;;;;;11.51;70.45;99399.23;105523;1253;65056;-48
2023/04/02 03:16:28;;;;;;;14.50;9.90;;;;;;;11.48;70.41;99400.04;105416;1254;60479;-49
2023/04/02 03:19:11;;;;;;;12.40;8.60;;;;;;;11.52;70.40;99403.02;105674;1254;59748;-49
2023/04/02 03:22:02;;;;;;;13.90;8.70;;;;;;;11.56;70.29;99406.52;105394;1257;65426;-49
2023/04/02 03:24:57;;;;;;;13.40;8.30;;;;;;;11.60;70.23;99407.53;105486;1255;62372;-48
2023/04/02 03:27:34;;;;;;;14.40;9.40;;;;;;;11.61;70.35;99407.20;105369;1260;64785;-49
2023/04/02 03:30:17;;;;;;;15.90;9.10;;;;;;;11.60;70.50;99410.13;105288;1255;59767;-48
2023/04/02 03:32:46;;;;;;;12.40;9.70;;;;;;;11.59;70.46;99410.98;105268;1254;59731;-49
2023/04/02 03:35:31;;;;;;;15.40;10.60;;;;;;;11.57;70.37;99410.66;105322;1260;64847;-48
2023/04/02 03:38:06;;;;;;;13.30;9.30;;;;;;;11.58;70.16;99414.40;105298;1260;62707;-48
2023/04/02 03:40:38;;;;;;;11.40;8.70;;;;;;;11.59;70.07;99413.94;105229;1254;64067;-49
2023/04/02 03:43:15;;;;;;;14.70;9.60;;;;;;;11.59;70.05;99415.66;105499;1254;59713;-48
2023/04/02 03:45:48;;;;;;;16.90;10.80;;;;;;;11.59;70.38;99418.15;105432;1255;59739;-49
2023/04/02 03:48:26;;;;;;;13.80;10.20;;;;;;;11.59;70.46;99421.09;105433;1259;65081;-49
2023/04/02 03:51:03;;;;;;;17.60;11.10;;;;;;;11.61;70.53;99422.52;105769;1252;62457;-49
2023/04/02 03:53:31;;;;;;;15.40;10.60;;;;;;;11.59;70.57;99425.02;105550;1257;63879;-50
2023/04/02 03:55:59;;;;;;;15.70;10.90;;;;;;;11.56;70.39;99427.39;105618;1250;60519;-48
2023/04/02 03:58:45;;;;;;;15.10;9.80;;;;;;;11.60;70.35;99427.66;105611;1251;60597;-48
2023/04/02 04:01:30;;;;;;;13.30;9.30;;;;;;;11.65;70.19;99427.53;105682;1257;66110;-48
2023/04/02 04:04:16;;;;;;;13.70;9.90;;;;;;;11.67;70.01;99429.33;105652;1254;62663;-48
2023/04/02 04:06:46;;;;;;;16.80;10.00;;;;;;;11.64;70.12;99429.94;105540;1252;64869;-50
2023/04/02 04:09:36;;;;;;;17.00;11.00;;;;;;;11.62;70.23;99428.17;105748;1251;60551;-49
2023/04/02 04:12:18;;;;;;;16.10;11.40;;;;;;;11.60;70.20;99433.83;105827;1254;60385;-50
2023/04/02 04:15:03;;;;;;;14.50;10.40;;;;;;;11.58;70.29;99432.61;105838;1251;66441;-49
2023/04/02 04:18:00;;;;;;;18.20;10.20;;;;;;;11.60;70.09;99435.95;105664;1252;62332;-48
2023/04/02 04:20:38;;;;;;;13.50;10.60;;;;;;;11.62;70.01;99438.41;105373;1255;64839;-48
2023/04/02 04:23:09;;;;;;;15.10;10.60;;;;;;;11.64;70.00;99439.84;105588;1251;60471;-49
2023/04/02 04:25:38;;;;;;;16.60;11.90;;;;;;;11.64;70.30;99441.52;105777;1251;60577;-48
2023/04/02 04:28:23;;;;;;;14.70;11.40;;;;;;;11.65;70.57;99443.48;105578;1254;67702;-50
2023/04/02 04:31:07;;;;;;;16.60;10.70;;;;;;;11.67;70.43;99448.80;105702;1257;62652;-45
2023/04/02 04:33:49;;;;;;;14.50;10.90;;;;;;;11.65;70.39;99446.38;105543;1257;65082;-49
2023/04/02 04:36:27;;;;;;;13.40;10.80;;;;;;;11.62;70.38;99448.01;105516;1254;60367;-49
2023/04/02 04:39:13;;;;;;;17.00;11.30;;;;;;;11.69;70.13;99450.13;106124;1256;60523;-49
2023/04/02 04:41:44;;;;;;;14.50;10.20;;;;;;;11.74;69.95;99450.59;105622;1260;66167;-48
2023/04/02 04:44:22;;;;;;;12.60;10.50;;;;;;;11.79;69.99;99454.48;105469;1259;61752;-48
2023/04/02 04:47:07;;;;;;;15.80;11.00;;;;;;;11.81;69.99;99452.86;106061;1256;63925;-48
2023/04/02 04:50:15;;;;;;;16.20;12.00;;;;;;;11.82;70.14;99455.73;105666;1254;60482;-48
2023/04/02 04:52:44;;;;;;;18.90;12.30;;;;;;;11.84;70.28;99456.06;105465;1253;60616;-48
2023/04/02 04:55:25;;;;;;;15.90;11.10;;;;;;;11.80;70.22;99455.45;105902;1257;66098;-48
2023/04/02 04:58:03;;;;;;;15.80;10.60;;;;;;;11.82;70.15;99458.03;105658;1254;62659;-48
2023/04/02 05:00:46;;;;;;;15.10;10.80;;;;;;;11.85;70.06;99459.83;105644;1257;63849;-48
2023/04/02 05:03:45;;;;;;;15.70;11.80;;;;;;;11.89;70.10;99461.38;105431;1255;60534;-48
2023/04/02 05:06:30;;;;;;;16.20;11.50;;;;;;;11.90;70.12;99464.25;105688;1257;60555;-48
2023/04/02 05:09:06;;;;;;;14.80;11.50;;;;;;;11.89;70.24;99463.85;105753;1254;66218;-48
2023/04/02 05:11:38;;;;;;;13.10;10.90;;;;;;;11.87;70.17;99461.70;105683;1259;62673;-49
2023/04/02 05:14:11;;;;;;;14.00;10.50;;;;;;;11.85;70.05;99464.64;105709;1259;64220;-48
2023/04/02 05:16:44;;;;;;;14.70;10.60;;;;;;;11.86;70.04;99463.44;105566;1257;60490;-48
2023/04/02 05:19:22;;;;;;;13.50;10.20;;;;;;;11.89;69.95;99463.10;105704;1259;60543;-48
2023/04/02 05:22:16;;;;;;;13.00;10.70;;;;;;;11.91;69.84;99463.80;105694;1257;65833;-48
2023/04/02 05:24:53;;;;;;;14.70;10.80;;;;;;;11.90;70.02;99465.45;105638;1256;62357;-48
2023/04/02 05:27:26;;;;;;;16.20;10.60;;;;;;;11.90;69.96;99466.36;105719;1257;64743;-49
2023/04/02 05:30:12;;;;;;;15.80;11.10;;;;;;;11.88;69.97;99463.35;105766;1256;60627;-48
2023/04/02 05:32:46;;;;;;;16.10;10.80;;;;;;;11.86;70.03;99464.14;105844;1251;60418;-49
2023/04/02 05:35:16;;;;;;;14.20;9.70;;;;;;;11.87;69.83;99466.63;105800;1254;65220;-49
2023/04/02 05:37:45;;;;;;;13.80;10.00;;;;;;;11.91;69.79;99470.17;105733;1256;62869;-48
2023/04/02 05:40:38;;;;;;;12.50;9.30;;;;;;;11.94;70.05;99469.15;105507;1260;65092;-48
2023/04/02 05:43:09;;;;;;;14.80;9.80;;;;;;;12.00;70.18;99471.73;106096;1255;60493;-48
2023/04/02 05:45:41;;;;;;;13.60;9.70;;;;;;;12.05;70.30;99473.88;105710;1251;60571;-48
2023/04/02 05:48:16;;;;;;;11.70;9.20;;;;;;;12.07;70.10;99474.36;105910;1256;66258;-48
2023/04/02 05:50:48;;;;;;;14.30;10.50;;;;;;;12.04;69.96;99475.02;105521;1251;62419;-48
2023/04/02 05:53:47;;;;;;;13.40;9.20;;;;;;;12.01;69.89;99479.32;105650;1257;64058;-48
2023/04/02 05:56:16;;;;;;;11.90;8.80;;;;;;;12.03;69.86;99477.76;105838;1255;60528;-48
2023/04/02 05:58:52;;;;;;;10.80;8.70;;;;;;;12.06;69.85;99477.47;105805;1252;60520;-52
2023/04/02 06:01:35;;;;;;;12.40;9.30;;;;;;;12.09;69.77;99482.61;105771;1256;65786;-49
2023/04/02 06:04:15;;;;;;;12.70;8.90;;;;;;;12.10;69.86;99481.52;105809;1254;62796;-49
2023/04/02 06:06:47;;;;;;;12.60;9.80;;;;;;;12.11;70.07;99484.16;105657;1259;64585;-49
2023/04/02 06:09:23;;;;;;;11.90;9.30;;;;;;;12.09;69.99;99488.56;105733;1255;60924;-48
2023/04/02 06:12:03;;;;;;;11.80;8.60;;;;;;;12.08;70.04;99490.45;105918;1253;60488;-50
2023/04/02 06:14:34;;;;;;;11.50;8.40;;;;;;;12.13;69.84;99492.11;105885;1257;66941;-49
2023/04/02 06:17:02;;;;;;;13.20;7.70;;;;;;;12.16;69.75;99497.44;105651;1255;62270;-48
2023/04/02 06:19:34;;;;;;;11.80;8.30;;;;;;;12.18;69.68;99498.61;105437;1256;64767;-49
2023/04/02 06:22:09;;;;;;;11.80;8.80;;;;;;;12.15;69.78;99496.91;105521;1257;60525;-50
2023/04/02 06:24:37;;;;;;;11.90;9.10;;;;;;;12.12;69.85;99495.73;105199;1261;60774;-50
2023/04/02 06:27:06;;;;;;;13.40;9.60;;;;;;;12.09;69.92;99499.14;105417;1258;66096;-49
2023/04/02 06:29:39;;;;;;;13.80;9.00;;;;;;;12.07;70.03;99502.86;105397;1258;62581;-49
2023/04/02 06:32:12;;;;;;;11.80;8.40;;;;;;;12.07;70.12;99505.66;105578;1257;64064;-52
2023/04/02 06:34:44;;;;;;;14.20;8.40;;;;;;;12.11;69.92;99507.90;105704;1254;60465;-50
2023/04/02 06:37:29;;;;;;;9.40;7.60;;;;;;;12.16;69.92;99508.33;105475;1266;60431;-50
2023/04/02 06:40:43;;;;;;;10.20;7.50;;;;;;;12.23;70.03;99508.94;106320;1256;65178;-51
2023/04/02 06:44:04;;;;;;;11.70;8.80;;;;;;;12.25;69.89;99507.83;105567;1256;62678;-51
2023/04/02 06:46:52;;;;;;;10.00;6.90;;;;;;;12.28;69.93;99512.67;105771;1254;73371;-51
2023/04/02 06:49:31;;;;;;;11.30;8.50;;;;;;;12.28;69.89;99509.03;105803;1251;60528;-51
2023/04/02 06:52:04;;;;;;;9.50;7.30;;;;;;;12.26;69.54;99515.35;105794;1253;60565;-51
2023/04/02 06:54:33;;;;;;;9.90;7.10;;;;;;;12.28;69.52;99516.02;105991;1256;66117;-51
2023/04/02 06:57:07;;;;;;;10.00;6.80;;;;;;;12.34;69.56;99519.36;105719;1251;62395;-50
2023/04/02 06:59:42;;;;;;;13.40;7.50;;;;;;;12.39;69.49;99520.52;105746;1261;64826;-51
2023/04/02 07:02:29;;;;;;;9.10;6.60;;;;;;;12.41;69.36;99521.20;106646;1254;60465;-51
2023/04/02 07:05:04;;;;;;;10.40;7.40;;;;;;;12.43;69.56;99525.05;105789;1251;60473;-51
2023/04/02 07:07:34;;;;;;;9.70;6.00;;;;;;;12.41;69.38;99527.17;105712;1256;66027;-51
2023/04/02 07:10:07;;;;;;;8.70;6.50;;;;;;;12.38;69.38;99529.38;106080;1251;62303;-51
2023/04/02 07:12:36;;;;;;;8.60;6.40;;;;;;;12.44;69.58;99530.07;105709;1253;64885;-52
2023/04/02 07:15:14;;;;;;;8.60;6.30;;;;;;;12.54;69.49;99530.89;105839;1251;60440;-51
2023/04/02 07:17:47;;;;;;;9.20;6.30;;;;;;;12.60;69.45;99532.48;105691;1251;60478;-51
2023/04/02 07:20:30;;;;;;;9.10;6.70;;;;;;;12.63;69.46;99535.83;105936;1251;66426;-50
2023/04/02 07:23:02;;;;;;;;;;;;;;;12.65;69.29;99538.89;105635;1252;62393;-50
2023/04/02 07:25:30;;;;;;;10.70;7.50;;;;;;;12.62;68.87;99540.17;105693;1252;65085;-54
2023/04/02 07:28:00;;;;;;;9.10;6.80;;;;;;;12.57;68.81;99539.31;105899;1251;60563;-51
2023/04/02 07:30:29;;;;;;;7.70;5.80;;;;;;;12.51;68.72;99542.90;105765;1250;60641;-51
2023/04/02 07:32:58;;;;;;;7.00;5.40;;;;;;;12.51;68.60;99542.08;105894;1255;66142;-51
2023/04/02 07:35:27;;;;;;;9.50;5.90;;;;;;;12.53;68.66;99541.86;105807;1251;62497;-51
2023/04/02 07:37:56;;;;;;;7.60;5.60;;;;;;;12.54;68.74;99541.56;105765;1254;65532;-49
2023/04/02 07:40:24;;;;;;;8.50;6.20;;;;;;;12.54;68.84;99541.23;105716;1253;61513;-50
2023/04/02 07:42:53;;;;;;;8.80;6.00;;;;;;;12.52;68.80;99544.23;105784;1254;59786;-49
2023/04/02 07:45:21;;;;;;;8.20;6.00;;;;;;;12.46;68.95;99544.77;105901;1255;66198;-50
2023/04/02 07:47:49;;;;;;;8.30;6.30;;;;;;;12.44;69.13;99549.40;106124;1254;62280;-49
2023/04/02 07:50:17;;;;;;;14.60;10.20;;;;;;;12.42;68.95;99549.08;105703;1251;64651;-51
2023/04/02 07:52:46;;;;;;;9.10;6.10;;;;;;;12.43;68.87;99549.55;105689;1252;60907;-50
2023/04/02 07:55:17;;;;;;;11.80;8.50;;;;;;;12.46;68.66;99552.96;105769;1257;60293;-50
2023/04/02 07:57:56;;;;;;;7.80;5.70;;;;;;;12.49;68.70;99551.58;105741;1255;66367;-50
2023/04/02 08:00:25;;;;;;;8.40;5.90;;;;;;;12.50;68.68;99551.84;105741;1251;62632;-50
2023/04/02 08:02:55;;;;;;;7.10;5.40;;;;;;;12.48;68.77;99553.60;105837;1254;65285;-49
2023/04/02 08:05:25;;;;;;;8.10;5.50;;;;;;;12.49;68.86;99553.39;105670;1254;60459;-50
2023/04/02 08:07:54;;;;;;;7.80;5.70;;;;;;;12.48;68.71;99553.61;105732;1251;60426;-50
2023/04/02 08:10:22;;;;;;;7.20;5.10;;;;;;;12.47;68.75;99552.52;105739;1251;64880;-51
2023/04/02 08:12:56;;;;;;;8.40;5.40;;;;;;;12.50;68.65;99552.16;105663;1251;62337;-49
2023/04/02 08:15:24;;;;;;;7.30;5.40;;;;;;;12.55;68.45;99552.89;105821;1254;65108;-49
2023/04/02 08:17:53;;;;;;;7.60;5.40;;;;;;;12.59;68.52;99553.52;105680;1252;60451;-49
2023/04/02 08:20:22;;;;;;;7.20;5.40;;;;;;;12.62;68.49;99555.15;105769;1253;60436;-48
2023/04/02 08:22:51;;;;;;;7.80;5.80;;;;;;;12.63;68.50;99555.29;105666;1253;64873;-48
2023/04/02 08:25:19;;;;;;;7.90;5.70;;;;;;;12.61;68.57;99558.58;105874;1256;62634;-48
2023/04/02 08:27:48;;;;;;;7.50;6.30;;;;;;;12.62;68.63;99561.55;105758;1254;65175;-49
2023/04/02 08:30:17;;;;;;;8.30;6.20;;;;;;;12.60;68.50;99558.70;105774;1251;62532;-49
2023/04/02 08:32:46;;;;;;;8.50;5.60;;;;;;;12.63;68.36;99560.49;105642;1251;60434;-50
2023/04/02 08:35:15;;;;;;;7.70;5.50;;;;;;;12.67;68.23;99563.64;105648;1251;64665;-50
2023/04/02 08:37:46;;;;;;;8.00;5.90;;;;;;;12.72;68.22;99561.37;106258;1254;61664;-49
2023/04/02 08:40:21;;;;;;;6.60;5.10;;;;;;;12.74;68.28;99563.06;105636;1254;71449;-49
2023/04/02 08:42:56;;;;;;;7.50;5.10;;;;;;;12.74;68.44;99566.43;105835;1254;60555;-50
2023/04/02 08:45:41;;;;;;;8.50;5.50;;;;;;;12.72;68.48;99567.55;105662;1254;60543;-49
2023/04/02 08:48:09;;;;;;;7.90;6.10;;;;;;;12.66;68.37;99570.40;105733;1251;64841;-49
2023/04/02 08:50:40;;;;;;;8.30;5.80;;;;;;;12.61;68.39;99571.25;105611;1257;61557;-49
2023/04/02 08:53:25;;;;;;;7.40;5.50;;;;;;;12.62;68.21;99574.52;105532;1251;65052;-51
2023/04/02 08:56:04;;;;;;;7.90;5.50;;;;;;;12.65;68.16;99577.42;105629;1251;60351;-53
2023/04/02 08:58:58;;;;;;;8.20;6.10;;;;;;;12.67;68.12;99574.38;105642;1251;60508;-51
2023/04/02 09:01:35;;;;;;;8.80;6.20;;;;;;;12.68;68.28;99577.69;105707;1251;66262;-51
2023/04/02 09:04:15;;;;;;;8.20;6.50;;;;;;;12.69;68.46;99579.30;105717;1251;62706;-51
2023/04/02 09:06:45;;;;;;;9.50;6.30;;;;;;;12.67;68.38;99580.71;105673;1251;65141;-50
2023/04/02 09:09:14;;;;;;;8.20;6.20;;;;;;;12.65;68.31;99585.34;105635;1251;60568;-50
2023/04/02 09:12:01;;;;;;;8.00;6.20;;;;;;;12.60;68.18;99586.58;105356;1256;60537;-50
2023/04/02 09:14:44;;;;;;;8.90;6.50;;;;;;;12.55;68.15;99587.20;105918;1251;74042;-50
2023/04/02 09:17:21;;;;;;;9.30;6.30;;;;;;;12.53;68.07;99587.94;105722;1254;61398;-51
2023/04/02 09:20:01;;;;;;;8.30;6.20;;;;;;;12.54;68.38;99589.54;105686;1255;64853;-52
2023/04/02 09:22:30;;;;;;;11.80;6.90;;;;;;;12.55;68.45;99593.17;105791;1252;60896;-50
2023/04/02 09:25:01;;;;;;;8.70;7.00;;;;;;;12.54;68.44;99593.09;105743;1254;60549;-50
2023/04/02 09:27:35;;;;;;;8.80;6.90;;;;;;;12.51;68.34;99590.98;105617;1251;66203;-51
2023/04/02 09:30:28;;;;;;;10.10;7.70;;;;;;;12.48;68.55;99594.23;105791;1252;62698;-50
2023/04/02 09:33:00;;;;;;;9.20;7.30;;;;;;;12.48;68.61;99601.30;105700;1254;64732;-50
2023/04/02 09:35:31;;;;;;;9.30;6.40;;;;;;;12.50;68.50;99601.05;105610;1254;60568;-51
2023/04/02 09:38:08;;;;;;;8.70;5.90;;;;;;;12.53;68.44;99598.70;105537;1258;60338;-52
2023/04/02 09:40:46;;;;;;;11.20;7.30;;;;;;;12.55;68.28;99598.84;105734;1254;66212;-50
2023/04/02 09:43:17;;;;;;;10.40;7.50;;;;;;;12.55;68.43;99600.78;105547;1251;63061;-51
2023/04/02 09:45:56;;;;;;;10.60;7.60;;;;;;;12.50;68.55;99608.70;105730;1252;64991;-51
2023/04/02 09:48:29;;;;;;;10.50;8.20;;;;;;;12.43;68.77;99609.61;105802;1251;60530;-51
2023/04/02 09:51:11;;;;;;;9.60;7.60;;;;;;;12.41;68.85;99609.83;105787;1251;60469;-48
2023/04/02 09:53:47;;;;;;;10.30;6.90;;;;;;;12.41;68.84;99609.46;105670;1250;66214;-49
2023/04/02 09:56:20;;;;;;;10.00;7.10;;;;;;;12.45;68.77;99610.85;105687;1251;62625;-51
2023/04/02 09:59:11;;;;;;;8.40;5.80;;;;;;;12.50;68.77;99614.27;105759;1252;65109;-50
2023/04/02 10:01:46;;;;;;;9.40;6.80;;;;;;;12.58;68.69;99609.09;105640;1250;60458;-50
2023/04/02 10:04:30;;;;;;;9.60;6.80;;;;;;;12.58;68.88;99609.30;105809;1254;60354;-51
2023/04/02 10:06:58;;;;;;;9.30;7.30;;;;;;;12.56;68.89;99610.02;105724;1251;65994;-51
2023/04/02 10:09:29;;;;;;;9.70;7.70;;;;;;;12.57;68.77;99609.52;105674;1251;62567;-50
2023/04/02 10:11:58;;;;;;;9.20;7.30;;;;;;;12.55;68.79;99614.34;105802;1254;65329;-50
2023/04/02 10:14:37;;;;;;;7.70;5.80;;;;;;;12.51;68.57;99617.68;105658;1251;60805;-50
2023/04/02 10:17:11;;;;;;;7.90;6.00;;;;;;;12.47;68.16;99619.48;105918;1251;60363;-49
2023/04/02 10:19:42;;;;;;;7.00;5.10;;;;;;;12.48;68.03;99620.83;105746;1256;66003;-49
2023/04/02 10:22:15;;;;;;;8.60;6.50;;;;;;;12.48;68.04;99623.06;106104;1254;61644;-49
2023/04/02 10:24:45;;;;;;;8.10;6.50;;;;;;;12.48;68.07;99620.98;105716;1257;64635;-50
2023/04/02 10:27:25;;;;;;;8.10;6.50;;;;;;;12.46;68.17;99620.31;105912;1257;60449;-51
2023/04/02 10:30:01;;;;;;;8.30;6.40;;;;;;;12.44;68.09;99620.28;105785;1251;60541;-50
2023/04/02 10:32:45;;;;;;;8.10;6.20;;;;;;;12.46;68.30;99624.17;105809;1251;66082;-50
2023/04/02 10:35:28;;;;;;;6.60;5.00;;;;;;;12.54;67.98;99624.73;105999;1254;62551;-50
2023/04/02 10:38:15;;;;;;;6.70;4.60;;;;;;;12.58;67.96;99627.52;105793;1257;65062;-49
2023/04/02 10:41:19;;;;;;;6.90;4.40;;;;;;;12.65;67.81;99627.41;105705;1251;60413;-50
2023/04/02 10:44:04;;;;;;;6.20;4.50;;;;;;;12.73;67.83;99629.55;105993;1254;60991;-50
2023/04/02 10:47:00;;;;;;;6.30;4.80;;;;;;;12.75;67.99;99628.27;105651;1251;66633;-50
2023/04/02 10:50:06;;;;;;;6.20;4.30;;;;;;;12.78;67.79;99629.70;105739;1254;62106;-51
2023/04/02 10:52:38;;;;;;;7.50;4.60;;;;;;;12.78;67.62;99630.23;105509;1254;65106;-50
2023/04/02 10:55:22;;;;;;;6.10;4.30;;;;;;;12.75;67.52;99628.42;105628;1251;60627;-51
2023/04/02 10:57:51;;;;;;;5.40;3.50;;;;;;;12.73;67.41;99629.70;105823;1251;60642;-51
2023/04/02 11:00:24;;;;;;;4.60;2.60;;;;;;;12.74;67.25;99629.45;105734;1254;66012;-50
2023/04/02 11:03:06;;;;;;;4.60;2.60;;;;;;;12.77;67.20;99632.34;105636;1254;61640;-50
2023/04/02 11:05:43;;;;;;;4.50;2.80;;;;;;;12.81;67.14;99637.05;109449;1251;64718;-51
2023/04/02 11:08:20;;;;;;;5.20;3.10;;;;;;;12.82;67.14;99636.69;109217;1251;58511;-51
2023/04/02 11:11:20;;;;;;;5.30;3.10;;;;;;;12.85;67.14;99636.31;109266;1251;58369;-52
2023/04/02 11:14:05;;;;;;;4.80;2.90;;;;;;;12.86;66.95;99638.63;109145;1250;66095;-52
2023/04/02 11:16:33;;;;;;;4.90;3.10;;;;;;;12.83;66.82;99642.08;107825;1250;62837;-51
2023/04/02 11:19:15;;;;;;;5.80;2.60;;;;;;;12.79;66.81;99640.17;105719;1252;64590;-50
2023/04/02 11:22:00;;;;;;;3.90;1.90;;;;;;;12.81;66.73;99640.69;105738;1251;60577;-50
2023/04/02 11:24:37;;;;;;;4.00;1.90;;;;;;;12.86;66.64;99640.16;106161;1254;60348;-51
2023/04/02 11:27:11;;;;;;;5.00;2.40;;;;;;;12.89;66.59;99641.09;105769;1252;64875;-50
2023/04/02 11:30:15;;;;;;;4.30;2.30;;;;;;;12.88;66.72;99643.39;105793;1254;62355;-50
2023/04/02 11:32:49;;;;;;;4.80;2.50;;;;;;;12.85;66.90;99646.61;105692;1251;64895;-50
2023/04/02 11:35:30;;;;;;;4.80;2.60;;;;;;;12.81;67.09;99651.11;105684;1252;60597;-49
2023/04/02 11:38:22;;;;;;;4.30;2.50;;;;;;;12.76;67.01;99654.61;105684;1251;60465;-49
2023/04/02 11:40:53;;;;;;;4.40;2.10;;;;;;;12.71;67.18;99654.70;105837;1254;66199;-49
2023/04/02 11:43:34;;;;;;;4.30;2.20;;;;;;;12.73;67.19;99657.75;105367;1251;343343;-49
2023/04/02 11:57:56;;;;;;;4.40;1.80;;;;;;;12.99;67.15;99656.44;102683;1288;604591;-50
2023/04/02 12:00:27;;;;;;;3.80;2.00;;;;;;;13.48;65.92;99658.36;104828;1267;95364;-50
2023/04/02 12:03:24;;;;;;;4.60;2.50;;;;;;;13.50;65.75;99659.94;104979;1266;59554;-52
2023/04/02 12:05:57;;;;;;;5.60;2.30;;;;;;;13.48;65.48;99659.27;104909;1267;64424;-50
2023/04/02 12:08:34;;;;;;;4.40;2.00;;;;;;;13.40;65.30;99660.20;104615;1269;62692;-50
2023/04/02 12:11:08;;;;;;;4.40;2.30;;;;;;;13.34;65.33;99664.04;104504;1266;65089;-50
2023/04/02 12:13:38;;;;;;;4.70;2.50;;;;;;;13.31;65.38;99663.97;104833;1263;63131;-50
2023/04/02 12:16:11;;;;;;;7.40;3.20;;;;;;;13.29;65.52;99663.66;104801;1263;59381;-50
2023/04/02 12:18:52;;;;;;;6.90;4.20;;;;;;;13.23;65.61;99665.61;104731;1264;65037;-49